Time;durP1;ratioP1;P1;durP2;ratioP2;P2;SDS_P1;SDS_P2;PMS_P1;PMS_P2;Temp;Humidity;BMP_temperature;BMP_pressure;BME280_temperature;BME280_humidity;BME280_pressure;Samples;Min_cycle;Max_cycle;Signal;HPM_P1;HPM_P2
2021/12/01 00:00:48;;;;;;;10.13;5.40;;;;;;;1.59;60.93;98528.28;1765067;79;21101;-68
2021/12/01 00:03:15;;;;;;;10.82;5.37;;;;;;;1.58;60.75;98522.27;1756673;80;21101;-67
2021/12/01 00:05:42;;;;;;;9.65;5.12;;;;;;;1.61;60.57;98522.50;1765345;80;22024;-66
2021/12/01 00:08:09;;;;;;;8.45;4.28;;;;;;;1.61;60.33;98521.20;1769705;80;21039;-68
2021/12/01 00:10:37;;;;;;;10.38;5.42;;;;;;;1.61;60.25;98521.20;1771809;80;21101;-65
2021/12/01 00:13:08;;;;;;;8.08;4.75;;;;;;;1.60;60.24;98515.20;1776752;80;21053;-70
2021/12/01 00:15:37;;;;;;;10.13;5.00;;;;;;;1.63;60.20;98511.09;1742988;80;21062;-68
2021/12/01 00:18:04;;;;;;;10.08;4.78;;;;;;;1.66;60.14;98503.09;1777026;80;21547;-70
2021/12/01 00:20:31;;;;;;;7.80;4.00;;;;;;;1.69;59.90;98504.63;1771568;79;21569;-66
2021/12/01 00:22:59;;;;;;;10.58;4.83;;;;;;;1.70;59.82;98504.99;1769881;80;21054;-68
2021/12/01 00:25:27;;;;;;;9.10;5.30;;;;;;;1.70;59.83;98501.55;1771551;80;21088;-70
2021/12/01 00:27:54;;;;;;;10.28;5.05;;;;;;;1.74;59.98;98506.89;1776977;79;21116;-68
2021/12/01 00:30:22;;;;;;;9.18;5.17;;;;;;;1.77;59.99;98513.15;1763779;80;21528;-68
2021/12/01 00:32:49;;;;;;;10.20;5.60;;;;;;;1.79;59.90;98514.67;1761071;80;21093;-67
2021/12/01 00:35:15;;;;;;;8.80;4.60;;;;;;;1.81;59.95;98513.27;1789549;78;20986;-70
2021/12/01 00:37:42;;;;;;;10.15;5.37;;;;;;;1.77;59.93;98511.85;1793967;78;21113;-69
2021/12/01 00:40:11;;;;;;;8.40;4.60;;;;;;;1.76;59.87;98514.89;1794032;78;21056;-68
2021/12/01 00:42:38;;;;;;;8.83;4.65;;;;;;;1.77;60.07;98507.48;1767770;79;21041;-69
2021/12/01 00:45:09;;;;;;;7.90;4.20;;;;;;;1.78;60.49;98515.63;1792499;78;21089;-68
2021/12/01 00:47:50;;;;;;;8.15;4.60;;;;;;;1.76;61.02;98503.22;1790936;78;21072;-68
2021/12/01 00:50:23;;;;;;;8.95;4.87;;;;;;;1.76;61.42;98511.48;1788102;78;21068;-69
2021/12/01 00:52:52;;;;;;;9.08;4.85;;;;;;;1.74;61.82;98507.70;1795237;78;22597;-69
2021/12/01 00:55:18;;;;;;;10.48;4.72;;;;;;;1.76;62.44;98503.70;1793736;79;21056;-70
2021/12/01 00:57:45;;;;;;;9.33;5.15;;;;;;;1.71;62.85;98494.96;1767655;78;21038;-70
2021/12/01 01:00:13;;;;;;;8.90;4.72;;;;;;;1.70;63.31;98478.22;1736378;81;21069;-66
2021/12/01 01:02:39;;;;;;;10.63;5.45;;;;;;;1.64;63.70;98480.33;1784131;78;21077;-69
2021/12/01 01:05:06;;;;;;;9.50;5.50;;;;;;;1.62;63.90;98467.13;1792316;78;21558;-68
2021/12/01 01:07:34;;;;;;;10.82;5.35;;;;;;;1.59;64.21;98472.06;1793602;78;21124;-69
2021/12/01 01:10:16;;;;;;;10.15;5.70;;;;;;;1.62;64.37;98465.84;1768916;79;21284;-69
2021/12/01 01:18:07;;;;;;;12.33;5.87;;;;;;;1.57;64.33;98459.69;1712825;79;21116;-67
2021/12/01 01:20:35;;;;;;;9.25;5.25;;;;;;;1.59;64.59;98456.50;1767452;80;21202;-67
2021/12/01 01:23:03;;;;;;;10.20;5.62;;;;;;;1.60;64.57;98463.36;1767987;80;21168;-68
2021/12/01 01:25:30;;;;;;;9.73;4.70;;;;;;;1.65;64.56;98461.25;1767263;79;21074;-68
2021/12/01 01:27:57;;;;;;;8.63;5.10;;;;;;;1.67;64.39;98470.22;1805308;78;21524;-66
2021/12/01 01:30:24;;;;;;;8.95;4.62;;;;;;;1.66;63.66;98466.80;1799317;78;21073;-67
2021/12/01 01:32:52;;;;;;;9.10;4.87;;;;;;;1.62;63.83;98458.06;1802219;78;21032;-67
2021/12/01 01:35:19;;;;;;;10.38;5.12;;;;;;;1.64;63.47;98447.91;1787946;78;21659;-64
2021/12/01 01:37:46;;;;;;;9.20;4.97;;;;;;;1.63;63.00;98438.50;1792624;78;21634;-68
2021/12/01 01:40:13;;;;;;;8.98;4.45;;;;;;;1.63;62.93;98438.50;1793451;79;21009;-68
2021/12/01 01:42:40;;;;;;;8.70;4.80;;;;;;;1.63;62.82;98435.91;1791985;78;21056;-67
2021/12/01 01:45:07;;;;;;;9.48;4.47;;;;;;;1.63;62.63;98425.55;1770425;78;21092;-67
2021/12/01 01:47:33;;;;;;;8.15;4.47;;;;;;;1.64;62.40;98420.69;1768817;79;21049;-64
2021/12/01 01:50:25;;;;;;;8.75;4.30;;;;;;;1.70;62.28;98413.39;1779706;78;21070;-64
2021/12/01 01:52:34;;;;;;;9.85;4.72;;;;;;;1.69;62.11;98413.06;1774253;80;21057;-66
2021/12/01 01:55:00;;;;;;;9.18;4.83;;;;;;;1.67;62.45;98402.80;1777936;80;21043;-66
2021/12/01 01:57:27;;;;;;;8.40;4.33;;;;;;;1.66;62.70;98423.17;1770477;78;22100;-68
2021/12/01 01:59:53;;;;;;;8.80;4.30;;;;;;;1.67;62.92;98415.28;1777422;80;21021;-65
2021/12/01 02:02:20;;;;;;;7.85;4.30;;;;;;;1.62;63.50;98412.21;1750792;80;21090;-63
2021/12/01 02:04:47;;;;;;;7.22;4.25;;;;;;;1.63;63.76;98403.51;1753103;80;21084;-67
2021/12/01 02:07:13;;;;;;;12.40;4.67;;;;;;;1.57;64.21;98405.73;1748203;80;21126;-66
2021/12/01 02:09:40;;;;;;;7.95;4.45;;;;;;;1.54;64.91;98396.40;1771872;80;21071;-64
2021/12/01 02:12:08;;;;;;;7.80;4.60;;;;;;;1.50;65.39;98398.88;1787460;78;21722;-67
2021/12/01 02:14:34;;;;;;;10.30;4.95;;;;;;;1.44;65.84;98396.25;1793038;79;21057;-68
2021/12/01 02:17:01;;;;;;;8.80;5.28;;;;;;;1.38;66.08;98396.73;1765762;79;21587;-69
2021/12/01 02:19:28;;;;;;;8.63;4.35;;;;;;;1.38;66.36;98395.88;1791525;79;21046;-68
2021/12/01 02:21:54;;;;;;;7.25;4.12;;;;;;;1.38;66.69;98398.47;1790663;78;21132;-68
2021/12/01 02:24:23;;;;;;;8.23;4.47;;;;;;;1.40;66.79;98390.95;1792182;78;21084;-68
2021/12/01 02:26:51;;;;;;;9.28;4.85;;;;;;;1.40;67.01;98397.44;1791530;78;21512;-66
2021/12/01 02:29:22;;;;;;;8.48;4.33;;;;;;;1.41;67.24;98396.95;1787280;79;21367;-69
2021/12/01 02:34:54;;;;;;;6.87;4.37;;;;;;;1.45;67.60;98378.95;1878201;75;22383;-68
2021/12/01 02:37:21;;;;;;;9.83;5.25;;;;;;;1.40;67.75;98375.41;1846010;75;21057;-67
2021/12/01 02:39:52;;;;;;;8.90;4.42;;;;;;;1.41;67.92;98370.59;1812719;77;21077;-67
2021/12/01 02:42:19;;;;;;;10.93;5.58;;;;;;;1.39;68.06;98371.15;1849476;75;21008;-67
2021/12/01 02:44:46;;;;;;;10.63;5.47;;;;;;;1.37;68.12;98369.63;1808627;77;21049;-69
2021/12/01 02:47:14;;;;;;;14.23;6.92;;;;;;;1.36;68.30;98369.27;1847706;76;20999;-70
2021/12/01 02:49:40;;;;;;;12.63;6.28;;;;;;;1.37;68.29;98366.55;1813700;77;21563;-66
2021/12/01 02:52:07;;;;;;;9.50;5.47;;;;;;;1.45;68.28;98359.52;1849673;76;21076;-69
2021/12/01 02:54:33;;;;;;;10.70;4.80;;;;;;;1.54;68.12;98364.48;1849875;77;20978;-67
2021/12/01 02:57:00;;;;;;;10.72;4.80;;;;;;;1.52;68.18;98359.41;1839515;75;21057;-70
2021/12/01 02:59:27;;;;;;;10.50;5.95;;;;;;;1.49;68.20;98364.81;1846863;75;21018;-66
2021/12/01 03:01:54;;;;;;;9.58;5.60;;;;;;;1.46;68.32;98359.86;1841770;76;21070;-70
2021/12/01 03:04:21;;;;;;;9.93;5.20;;;;;;;1.44;68.24;98364.34;1847494;76;21128;-66
2021/12/01 03:06:49;;;;;;;11.20;4.47;;;;;;;1.42;68.25;98357.16;1819176;77;21100;-66
2021/12/01 03:09:16;;;;;;;8.53;4.85;;;;;;;1.40;68.25;98357.74;1846920;76;21101;-64
2021/12/01 03:11:44;;;;;;;10.72;5.25;;;;;;;1.38;68.36;98360.89;1846457;75;21013;-65
2021/12/01 03:14:17;;;;;;;7.60;4.60;;;;;;;1.34;68.47;98360.30;1846135;75;21110;-69
2021/12/01 03:16:44;;;;;;;8.80;5.05;;;;;;;1.35;68.50;98361.97;1803163;75;21071;-66
2021/12/01 03:19:10;;;;;;;9.08;4.67;;;;;;;1.35;68.54;98372.33;1772498;80;21019;-68
2021/12/01 03:21:40;;;;;;;9.65;5.00;;;;;;;1.37;68.57;98367.86;1800116;78;21085;-68
2021/12/01 03:24:08;;;;;;;10.38;5.50;;;;;;;1.38;68.58;98356.56;1802646;79;20995;-67
2021/12/01 03:26:35;;;;;;;8.43;4.70;;;;;;;1.42;68.60;98357.16;1810247;78;21129;-68
2021/12/01 03:29:02;;;;;;;9.13;4.92;;;;;;;1.45;68.59;98360.81;1805315;79;21152;-67
2021/12/01 03:31:29;;;;;;;9.08;4.65;;;;;;;1.49;68.25;98359.63;1778496;79;21092;-67
2021/12/01 03:33:56;;;;;;;8.95;4.90;;;;;;;1.48;68.21;98356.22;1772272;79;21061;-69
2021/12/01 03:36:22;;;;;;;8.78;4.62;;;;;;;1.51;68.21;98360.34;1774038;80;21031;-68
2021/12/01 03:38:49;;;;;;;9.73;4.55;;;;;;;1.62;68.09;98353.06;1787478;78;21082;-67
2021/12/01 03:41:16;;;;;;;8.83;4.53;;;;;;;1.71;68.06;98355.42;1743823;80;21023;-63
2021/12/01 03:43:43;;;;;;;8.75;4.33;;;;;;;1.69;68.30;98350.83;1733506;81;21075;-69
2021/12/01 03:46:11;;;;;;;9.10;5.00;;;;;;;1.63;68.56;98346.92;1753428;80;21101;-65
2021/12/01 03:48:38;;;;;;;11.78;4.62;;;;;;;1.57;68.67;98346.92;1761451;80;21123;-68
2021/12/01 03:51:05;;;;;;;8.53;5.28;;;;;;;1.51;68.90;98353.86;1747612;80;21038;-67
2021/12/01 03:53:32;;;;;;;8.40;4.65;;;;;;;1.51;68.97;98351.27;1763639;79;22211;-67
2021/12/01 03:55:59;;;;;;;8.98;4.35;;;;;;;1.57;69.08;98352.59;1766644;80;21011;-67
2021/12/01 03:58:26;;;;;;;7.97;4.50;;;;;;;1.63;69.22;98345.17;1770662;80;21004;-63
2021/12/01 04:00:52;;;;;;;10.38;4.97;;;;;;;1.63;69.25;98341.73;1765697;80;21074;-67
2021/12/01 04:03:19;;;;;;;9.20;5.15;;;;;;;1.59;69.21;98348.92;1789627;78;21090;-67
2021/12/01 04:05:46;;;;;;;7.25;3.52;;;;;;;1.54;69.22;98343.27;1773899;79;21135;-67
2021/12/01 04:08:13;;;;;;;9.40;4.72;;;;;;;1.51;69.23;98349.97;1779677;79;21039;-62
2021/12/01 04:10:40;;;;;;;7.97;4.90;;;;;;;1.47;69.08;98346.78;1748801;80;21136;-67
2021/12/01 04:13:07;;;;;;;7.75;4.12;;;;;;;1.43;69.15;98347.97;1773382;79;21053;-66
2021/12/01 04:15:33;;;;;;;9.55;5.15;;;;;;;1.47;69.19;98345.97;1764854;80;21086;-68
2021/12/01 04:18:01;;;;;;;7.40;4.40;;;;;;;1.58;68.95;98333.48;1770351;79;21580;-69
2021/12/01 04:20:28;;;;;;;8.75;5.12;;;;;;;1.61;68.87;98332.78;1763124;79;21072;-70
2021/12/01 04:22:55;;;;;;;9.45;5.30;;;;;;;1.61;68.75;98341.03;1747773;79;21517;-69
2021/12/01 04:25:22;;;;;;;8.95;5.10;;;;;;;1.55;68.77;98342.33;1761216;80;21137;-67
2021/12/01 04:27:49;;;;;;;9.25;5.20;;;;;;;1.53;68.90;98337.74;1765471;79;21089;-67
2021/12/01 04:30:19;;;;;;;8.75;4.72;;;;;;;1.54;69.04;98322.52;1771024;79;21197;-68
2021/12/01 04:32:46;;;;;;;8.95;4.50;;;;;;;1.60;68.88;98329.84;1764929;79;21018;-65
2021/12/01 04:35:15;;;;;;;9.50;5.50;;;;;;;1.58;68.85;98330.44;1742136;81;20999;-69
2021/12/01 04:37:41;;;;;;;9.95;5.45;;;;;;;1.58;68.83;98327.00;1755951;80;21105;-69
2021/12/01 04:40:09;;;;;;;10.08;5.35;;;;;;;1.53;68.90;98321.34;1765221;79;21627;-69
2021/12/01 04:42:36;;;;;;;8.23;4.53;;;;;;;1.58;68.88;98329.14;1765126;80;21081;-69
2021/12/01 04:45:06;;;;;;;9.85;5.03;;;;;;;1.69;68.73;98329.61;1770664;79;21042;-68
2021/12/01 04:47:37;;;;;;;8.23;4.78;;;;;;;1.74;68.72;98327.48;1773153;79;21057;-69
2021/12/01 04:50:01;;;;;;;8.85;4.92;;;;;;;1.72;68.71;98324.20;1771777;79;21053;-68
2021/12/01 04:52:28;;;;;;;7.50;4.87;;;;;;;1.67;68.86;98323.73;1763735;80;21019;-66
2021/12/01 04:54:54;;;;;;;8.93;4.47;;;;;;;1.66;68.94;98325.95;1766698;79;21042;-70
2021/12/01 04:57:21;;;;;;;8.50;5.17;;;;;;;1.64;68.97;98321.36;1766036;79;21054;-68
2021/12/01 04:59:48;;;;;;;9.65;5.05;;;;;;;1.61;69.04;98330.66;1765981;79;21038;-68
2021/12/01 05:02:15;;;;;;;6.92;4.12;;;;;;;1.58;69.16;98328.30;1742021;81;20995;-69
2021/12/01 05:04:42;;;;;;;9.15;4.80;;;;;;;1.57;69.28;98327.96;1763330;79;21421;-66
2021/12/01 05:07:10;;;;;;;11.10;5.28;;;;;;;1.65;69.16;98324.32;1755543;79;21507;-68
2021/12/01 05:09:37;;;;;;;11.93;4.95;;;;;;;1.66;69.11;98334.58;1755983;79;21050;-68
2021/12/01 05:12:07;;;;;;;10.00;5.22;;;;;;;1.64;69.23;98331.73;1740351;80;21666;-68
2021/12/01 05:14:37;;;;;;;7.65;4.78;;;;;;;1.62;69.38;98333.63;1766313;80;21446;-67
2021/12/01 05:17:04;;;;;;;9.55;5.17;;;;;;;1.59;69.44;98332.08;1770941;79;21109;-68
2021/12/01 05:19:31;;;;;;;9.20;4.75;;;;;;;1.60;69.39;98330.33;1731722;81;21098;-68
2021/12/01 05:21:58;;;;;;;7.70;4.80;;;;;;;1.62;69.34;98330.55;1740294;80;21108;-69
2021/12/01 05:24:24;;;;;;;8.88;4.60;;;;;;;1.62;69.31;98340.92;1744615;79;21628;-67
2021/12/01 05:26:51;;;;;;;8.28;5.08;;;;;;;1.69;69.24;98345.65;1741140;80;22417;-67
2021/12/01 05:29:18;;;;;;;8.15;4.85;;;;;;;1.77;69.10;98346.70;1757925;79;21609;-70
2021/12/01 05:31:44;;;;;;;8.65;4.97;;;;;;;1.80;69.04;98346.48;1759828;80;21165;-67
2021/12/01 05:34:11;;;;;;;8.50;4.83;;;;;;;1.79;69.11;98349.19;1762777;79;21053;-66
2021/12/01 05:36:38;;;;;;;8.13;4.45;;;;;;;1.76;69.14;98346.34;1782715;79;21607;-65
2021/12/01 05:39:04;;;;;;;9.88;5.05;;;;;;;1.71;69.20;98350.24;1778478;78;21573;-66
2021/12/01 05:41:31;;;;;;;7.80;4.10;;;;;;;1.66;69.38;98350.13;1779464;78;21621;-66
2021/12/01 05:43:57;;;;;;;8.75;4.60;;;;;;;1.65;69.54;98346.36;1750461;79;21540;-63
2021/12/01 05:46:26;;;;;;;8.60;4.55;;;;;;;1.73;69.31;98358.72;1780280;78;21570;-66
2021/12/01 05:48:52;;;;;;;7.35;4.58;;;;;;;1.74;69.23;98365.09;1778048;78;21113;-68
2021/12/01 05:51:20;;;;;;;13.05;5.22;;;;;;;1.73;69.38;98362.61;1780190;79;21534;-66
2021/12/01 05:53:47;;;;;;;10.05;5.20;;;;;;;1.73;69.47;98371.69;1806011;77;21643;-67
2021/12/01 05:56:14;;;;;;;8.65;4.67;;;;;;;1.74;69.53;98379.34;1786440;78;21124;-66
2021/12/01 05:58:41;;;;;;;11.95;5.00;;;;;;;1.75;69.54;98381.46;1779129;78;21109;-67
2021/12/01 06:01:08;;;;;;;13.72;5.15;;;;;;;1.75;69.67;98382.76;1776480;80;21062;-66
2021/12/01 06:03:35;;;;;;;8.23;4.47;;;;;;;1.88;69.54;98383.48;1775740;79;21132;-68
2021/12/01 06:06:01;;;;;;;7.53;4.78;;;;;;;1.97;69.41;98390.58;1777906;78;21144;-65
2021/12/01 06:08:28;;;;;;;10.90;5.22;;;;;;;1.99;69.48;98392.58;1750443;79;21081;-70
2021/12/01 06:10:55;;;;;;;8.63;4.62;;;;;;;2.01;69.35;98388.57;1774812;78;22249;-66
2021/12/01 06:13:24;;;;;;;8.63;4.00;;;;;;;2.02;69.27;98394.94;1777743;78;21061;-66
2021/12/01 06:15:51;;;;;;;8.40;4.62;;;;;;;2.03;69.27;98402.23;1771660;79;21595;-67
2021/12/01 06:18:18;;;;;;;8.60;4.22;;;;;;;2.04;69.22;98403.42;1782863;78;21536;-68
2021/12/01 06:20:45;;;;;;;8.75;4.42;;;;;;;2.08;69.09;98404.48;1748927;79;21080;-67
2021/12/01 06:23:12;;;;;;;7.70;4.20;;;;;;;2.07;69.11;98403.67;1789392;78;21049;-67
2021/12/01 06:25:39;;;;;;;8.63;4.50;;;;;;;2.16;68.96;98411.22;1780472;78;21061;-67
2021/12/01 06:28:06;;;;;;;8.18;4.17;;;;;;;2.27;68.78;98407.78;1777603;79;21407;-68
2021/12/01 06:30:36;;;;;;;8.08;4.40;;;;;;;2.35;68.66;98410.13;1781322;78;21105;-67
2021/12/01 06:33:03;;;;;;;8.00;3.80;;;;;;;2.41;68.56;98416.16;1755440;79;21057;-67
2021/12/01 06:35:29;;;;;;;6.97;4.17;;;;;;;2.44;68.57;98416.85;1754637;79;21061;-68
2021/12/01 06:37:56;;;;;;;8.25;4.62;;;;;;;2.47;68.54;98429.15;1756958;78;21520;-68
2021/12/01 06:40:24;;;;;;;8.10;4.60;;;;;;;2.50;68.47;98431.96;1778336;78;21618;-67
2021/12/01 06:42:51;;;;;;;9.43;5.42;;;;;;;2.52;68.41;98430.06;1779646;78;21073;-68
2021/12/01 06:45:18;;;;;;;8.73;5.00;;;;;;;2.53;68.22;98436.44;1786034;79;21116;-67
2021/12/01 06:47:44;;;;;;;12.07;5.35;;;;;;;2.53;68.11;98443.41;1786836;79;21113;-69
2021/12/01 06:50:11;;;;;;;7.58;4.42;;;;;;;2.55;68.13;98443.63;1783906;78;21062;-69
2021/12/01 06:52:38;;;;;;;7.78;4.37;;;;;;;2.64;67.93;98448.60;1785515;79;21050;-68
2021/12/01 06:55:06;;;;;;;8.83;4.83;;;;;;;2.76;67.64;98448.11;1784540;78;21065;-65
2021/12/01 06:57:33;;;;;;;8.05;4.00;;;;;;;2.88;67.46;98445.02;1756535;79;21422;-67
2021/12/01 07:00:00;;;;;;;8.48;5.17;;;;;;;2.92;67.30;98447.23;1795486;78;21128;-64
2021/12/01 07:02:27;;;;;;;8.50;4.28;;;;;;;2.94;67.28;98453.60;1771464;79;21558;-64
2021/12/01 07:04:54;;;;;;;9.88;4.78;;;;;;;2.94;67.24;98456.20;1788068;78;21671;-65
2021/12/01 07:07:20;;;;;;;8.13;4.58;;;;;;;2.95;67.25;98461.27;1770406;78;21045;-63
2021/12/01 07:09:50;;;;;;;7.22;4.62;;;;;;;2.93;67.21;98458.47;1757925;80;21094;-65
2021/12/01 07:12:18;;;;;;;11.50;5.60;;;;;;;2.94;67.23;98467.44;1776420;78;21141;-64
2021/12/01 07:14:45;;;;;;;9.43;5.55;;;;;;;2.93;67.15;98474.87;1782100;79;21127;-67
2021/12/01 07:17:11;;;;;;;9.00;4.50;;;;;;;2.91;67.24;98474.17;1782178;79;22074;-61
2021/12/01 07:19:38;;;;;;;11.60;4.97;;;;;;;2.92;67.25;98474.98;1781754;78;21552;-61
2021/12/01 07:22:06;;;;;;;9.33;5.00;;;;;;;2.97;67.15;98480.64;1800992;78;21060;-66
2021/12/01 07:24:34;;;;;;;8.80;4.60;;;;;;;3.04;66.92;98486.18;1799763;78;21538;-61
2021/12/01 07:27:01;;;;;;;9.95;5.60;;;;;;;3.08;67.07;98500.12;1771490;78;21112;-63
2021/12/01 07:29:28;;;;;;;8.83;4.75;;;;;;;3.06;67.16;98496.82;1780096;78;21058;-69
2021/12/01 07:31:54;;;;;;;8.15;5.28;;;;;;;3.04;67.10;98497.88;1807280;77;21022;-66
2021/12/01 07:34:21;;;;;;;8.63;5.50;;;;;;;3.02;67.15;98492.80;1807915;78;21081;-65
2021/12/01 07:36:48;;;;;;;9.30;5.25;;;;;;;3.02;67.31;98497.99;1812479;78;21042;-65
2021/12/01 07:39:15;;;;;;;7.67;4.60;;;;;;;3.04;67.33;98499.98;1802278;78;21466;-65
2021/12/01 07:41:43;;;;;;;10.05;5.97;;;;;;;3.03;67.29;98503.55;1796396;78;21007;-64
2021/12/01 07:44:10;;;;;;;9.83;5.03;;;;;;;3.01;67.34;98493.77;1793078;78;21136;-64
2021/12/01 07:46:37;;;;;;;8.43;4.45;;;;;;;3.07;67.21;98500.23;1809522;77;21511;-64
2021/12/01 07:49:04;;;;;;;8.35;4.28;;;;;;;3.18;66.95;98499.37;1803667;78;21132;-64
2021/12/01 07:51:32;;;;;;;8.30;4.55;;;;;;;3.28;66.77;98502.43;1808829;78;21140;-64
2021/12/01 07:53:58;;;;;;;7.15;4.10;;;;;;;3.38;66.79;98503.83;1808511;77;21042;-66
2021/12/01 07:56:25;;;;;;;8.70;4.20;;;;;;;3.49;66.73;98507.66;1808860;78;21164;-66
2021/12/01 07:58:51;;;;;;;7.50;3.67;;;;;;;3.57;65.71;98519.24;1812151;77;21368;-65
2021/12/01 08:01:18;;;;;;;10.13;4.95;;;;;;;3.55;65.10;98519.37;1811252;78;21128;-65
2021/12/01 08:03:45;;;;;;;7.30;4.55;;;;;;;3.47;65.01;98514.77;1812297;78;21061;-71
2021/12/01 08:06:12;;;;;;;6.60;3.47;;;;;;;3.45;65.22;98521.87;1796132;78;21053;-72
2021/12/01 08:08:38;;;;;;;7.33;4.03;;;;;;;3.41;65.15;98524.35;1773230;78;21144;-73
2021/12/01 08:11:05;;;;;;;7.47;4.08;;;;;;;3.38;65.39;98527.22;1809979;77;21051;-68
2021/12/01 08:13:33;;;;;;;7.67;4.08;;;;;;;3.34;65.39;98532.30;1813169;77;21037;-72
2021/12/01 08:16:00;;;;;;;9.83;4.05;;;;;;;3.36;65.42;98531.70;1792022;78;21003;-72
2021/12/01 08:18:27;;;;;;;7.17;4.08;;;;;;;3.47;65.36;98533.45;1811432;78;21101;-61
2021/12/01 08:20:55;;;;;;;8.70;4.72;;;;;;;3.58;65.24;98541.23;1812168;78;21080;-67
2021/12/01 08:23:22;;;;;;;7.15;4.10;;;;;;;3.62;65.04;98548.30;1789276;78;21855;-62
2021/12/01 08:25:49;;;;;;;8.15;4.00;;;;;;;3.60;65.19;98543.67;1813573;78;21096;-62
2021/12/01 08:28:15;;;;;;;7.78;4.83;;;;;;;3.60;65.07;98542.38;1805699;77;21101;-63
2021/12/01 08:30:43;;;;;;;7.58;4.10;;;;;;;3.58;65.37;98556.83;1804227;78;21084;-62
2021/12/01 08:33:09;;;;;;;7.90;4.33;;;;;;;3.58;65.14;98549.48;1804526;78;21037;-63
2021/12/01 08:35:36;;;;;;;8.50;4.25;;;;;;;3.52;65.31;98554.23;1781426;78;21162;-62
2021/12/01 08:38:02;;;;;;;7.62;3.98;;;;;;;3.51;65.54;98563.00;1796306;78;21069;-62
2021/12/01 08:40:29;;;;;;;10.15;6.05;;;;;;;3.51;65.78;98562.15;1798550;78;21054;-63
2021/12/01 08:42:55;;;;;;;10.72;5.30;;;;;;;3.58;65.76;98563.78;1738616;80;21141;-63
2021/12/01 08:45:22;;;;;;;8.88;5.08;;;;;;;3.72;65.55;98573.92;1799861;78;22487;-64
2021/12/01 08:47:49;;;;;;;7.53;4.83;;;;;;;3.82;65.19;98572.23;1771691;79;21790;-63
2021/12/01 08:50:16;;;;;;;8.78;4.92;;;;;;;3.84;64.93;98579.91;1797005;77;21612;-62
2021/12/01 08:52:45;;;;;;;10.08;4.75;;;;;;;3.78;65.04;98578.61;1776687;78;22332;-64
2021/12/01 08:55:12;;;;;;;9.13;4.92;;;;;;;3.76;65.22;98587.02;1802692;77;21593;-64
2021/12/01 08:57:39;;;;;;;7.78;4.25;;;;;;;3.74;65.19;98579.82;1773198;79;21708;-63
2021/12/01 09:00:07;;;;;;;9.00;5.42;;;;;;;3.71;65.25;98589.16;1743213;80;21054;-62
2021/12/01 09:02:33;;;;;;;7.40;4.00;;;;;;;3.65;65.45;98589.20;1765042;79;21055;-64
2021/12/01 09:05:00;;;;;;;8.40;4.80;;;;;;;3.63;65.48;98591.10;1793634;79;21042;-64
2021/12/01 09:07:27;;;;;;;7.45;4.37;;;;;;;3.62;65.38;98597.72;1802666;78;21058;-62
2021/12/01 09:09:54;;;;;;;8.30;4.37;;;;;;;3.68;65.11;98595.91;1803141;79;21040;-65
2021/12/01 09:12:21;;;;;;;7.87;4.25;;;;;;;3.69;65.17;98597.58;1793294;77;21089;-63
2021/12/01 09:14:48;;;;;;;8.75;4.92;;;;;;;3.65;65.29;98604.80;1765942;79;21553;-62
2021/12/01 09:17:15;;;;;;;9.73;4.33;;;;;;;3.64;65.23;98611.42;1798991;79;21025;-63
2021/12/01 09:19:42;;;;;;;9.58;4.97;;;;;;;3.59;65.54;98604.46;1791247;79;21525;-61
2021/12/01 09:22:09;;;;;;;9.33;5.50;;;;;;;3.57;65.46;98607.67;1793766;78;21082;-61
2021/12/01 09:24:36;;;;;;;7.28;4.42;;;;;;;3.52;65.55;98610.14;1793279;79;21117;-67
2021/12/01 09:27:03;;;;;;;11.05;5.30;;;;;;;3.52;65.71;98614.52;1764785;79;21003;-63
2021/12/01 09:29:29;;;;;;;9.53;5.53;;;;;;;3.58;65.55;98625.75;1792537;78;21132;-64
2021/12/01 09:31:57;;;;;;;9.98;4.95;;;;;;;3.65;65.44;98623.01;1796168;78;21057;-64
2021/12/01 09:34:23;;;;;;;10.82;5.83;;;;;;;3.67;65.45;98622.89;1791959;78;21049;-63
2021/12/01 09:36:51;;;;;;;8.00;4.62;;;;;;;3.63;65.50;98626.66;1768605;78;21164;-66
2021/12/01 09:39:18;;;;;;;8.58;4.85;;;;;;;3.58;65.51;98622.30;1796271;78;21054;-62
2021/12/01 09:41:44;;;;;;;8.30;4.53;;;;;;;3.63;65.74;98640.97;1786892;78;21250;-62
2021/12/01 09:44:11;;;;;;;7.45;4.53;;;;;;;3.67;65.48;98638.50;1793547;78;21041;-64
2021/12/01 09:46:38;;;;;;;7.70;5.05;;;;;;;3.66;65.03;98643.33;1776277;79;21065;-62
2021/12/01 09:49:04;;;;;;;15.03;5.75;;;;;;;3.65;65.12;98654.22;1769361;79;21741;-62
2021/12/01 09:51:31;;;;;;;11.25;5.50;;;;;;;3.71;65.23;98655.02;1786247;78;21024;-64
2021/12/01 09:53:57;;;;;;;9.45;4.67;;;;;;;3.82;64.66;98649.46;1786211;78;21081;-63
2021/12/01 09:56:25;;;;;;;7.72;4.87;;;;;;;3.82;64.14;98659.38;1791028;78;21083;-64
2021/12/01 09:58:52;;;;;;;7.97;4.37;;;;;;;3.74;64.11;98663.55;1792454;78;21058;-64
2021/12/01 10:01:20;;;;;;;8.75;4.85;;;;;;;3.66;64.37;98671.95;1794180;78;21053;-64
2021/12/01 10:03:47;;;;;;;7.58;4.33;;;;;;;3.59;64.53;98677.28;1793336;78;21057;-63
2021/12/01 10:06:18;;;;;;;13.62;7.22;;;;;;;3.50;64.71;98695.74;1766670;79;21112;-61
2021/12/01 10:08:49;;;;;;;7.87;4.60;;;;;;;3.41;64.97;98688.16;1789725;78;21084;-62
2021/12/01 10:11:22;;;;;;;9.70;5.58;;;;;;;3.33;65.13;98691.37;1791550;78;21214;-63
2021/12/01 10:13:55;;;;;;;7.53;4.20;;;;;;;3.37;65.24;98704.95;1794376;78;21139;-64
2021/12/01 10:16:23;;;;;;;11.20;6.15;;;;;;;3.53;64.90;98720.19;1786745;78;21112;-65
2021/12/01 10:18:59;;;;;;;8.65;4.37;;;;;;;3.57;64.58;98716.41;1792196;78;21148;-61
2021/12/01 10:21:42;;;;;;;8.93;4.90;;;;;;;3.54;64.35;98708.84;1792451;78;21056;-61
2021/12/01 10:24:19;;;;;;;7.58;4.33;;;;;;;3.55;64.55;98719.62;1793419;78;21061;-61
2021/12/01 10:27:02;;;;;;;11.15;4.53;;;;;;;3.50;63.87;98720.45;1796714;78;21145;-63
2021/12/01 10:29:35;;;;;;;8.20;4.62;;;;;;;3.48;64.35;98727.06;1757203;79;21061;-62
2021/12/01 10:32:14;;;;;;;8.30;4.85;;;;;;;3.47;64.32;98729.30;1792700;78;21414;-63
2021/12/01 10:34:53;;;;;;;8.35;4.85;;;;;;;3.50;64.27;98730.37;1792123;78;21046;-63
2021/12/01 10:37:33;;;;;;;7.90;4.12;;;;;;;3.67;64.01;98724.34;1769930;78;21006;-64
2021/12/01 10:40:16;;;;;;;8.65;4.90;;;;;;;3.77;63.12;98720.55;1793912;79;21839;-63
2021/12/01 10:43:01;;;;;;;6.45;3.65;;;;;;;3.73;62.92;98734.24;1788331;78;21520;-64
2021/12/01 10:45:53;;;;;;;9.48;5.25;;;;;;;3.66;62.90;98740.88;1782622;79;21374;-64
2021/12/01 10:48:25;;;;;;;8.23;4.75;;;;;;;3.58;63.02;98734.14;1781078;78;21094;-66
2021/12/01 10:50:52;;;;;;;10.10;4.17;;;;;;;3.51;63.59;98737.69;1768187;79;21517;-66
2021/12/01 10:53:22;;;;;;;7.62;4.58;;;;;;;3.51;63.35;98745.48;1781685;79;21816;-63
2021/12/01 10:55:53;;;;;;;8.80;4.62;;;;;;;3.51;63.73;98748.94;1789808;78;21116;-62
2021/12/01 10:58:20;;;;;;;10.28;4.45;;;;;;;3.57;63.52;98757.21;1791345;79;21591;-63
2021/12/01 11:00:53;;;;;;;9.25;4.58;;;;;;;3.60;63.56;98759.09;1785847;79;21362;-61
2021/12/01 11:03:25;;;;;;;8.85;4.65;;;;;;;3.54;63.79;98759.56;1761709;79;21030;-62
2021/12/01 11:05:55;;;;;;;9.10;4.53;;;;;;;3.46;63.85;98765.37;1790076;78;21120;-61
2021/12/01 11:08:27;;;;;;;10.43;5.15;;;;;;;3.40;64.14;98766.30;1788051;78;21122;-67
2021/12/01 11:11:16;;;;;;;9.03;4.95;;;;;;;3.41;64.26;98771.36;1785709;78;21144;-64
2021/12/01 11:13:46;;;;;;;8.50;4.47;;;;;;;3.41;64.34;98777.86;1766052;80;21058;-63
2021/12/01 11:16:15;;;;;;;12.23;5.22;;;;;;;3.57;64.21;98787.13;1734165;80;21065;-64
2021/12/01 11:18:44;;;;;;;8.88;4.55;;;;;;;3.64;63.47;98781.80;1758281;80;21123;-64
2021/12/01 11:21:13;;;;;;;10.68;4.92;;;;;;;3.59;62.95;98779.54;1732437;79;21085;-62
2021/12/01 11:23:48;;;;;;;7.53;4.37;;;;;;;3.60;63.38;98782.51;1735051;81;21073;-63
2021/12/01 11:26:23;;;;;;;7.65;4.42;;;;;;;3.61;63.05;98791.95;1735211;81;21019;-61
2021/12/01 11:29:00;;;;;;;10.98;4.60;;;;;;;3.58;62.60;98782.25;1734886;81;21474;-60
2021/12/01 11:31:35;;;;;;;8.30;4.45;;;;;;;3.54;62.75;98786.87;1736243;81;21089;-71
2021/12/01 11:34:09;;;;;;;7.03;4.25;;;;;;;3.51;62.91;98799.65;1697013;81;21409;-61
2021/12/01 11:36:39;;;;;;;10.85;5.08;;;;;;;3.50;63.09;98794.08;1730692;81;21057;-65
2021/12/01 11:39:11;;;;;;;8.90;5.00;;;;;;;3.61;62.89;98788.05;1735472;81;21077;-64
2021/12/01 11:41:44;;;;;;;9.38;4.62;;;;;;;3.72;62.79;98789.36;1733951;81;21113;-66
2021/12/01 11:44:12;;;;;;;11.68;4.92;;;;;;;3.76;62.42;98795.14;1727756;81;21135;-65
2021/12/01 11:46:38;;;;;;;7.90;4.78;;;;;;;3.76;62.24;98804.25;1730560;81;21553;-68
2021/12/01 11:49:08;;;;;;;9.75;5.05;;;;;;;3.68;62.51;98804.86;1732183;81;21049;-69
2021/12/01 11:51:46;;;;;;;9.28;5.35;;;;;;;3.60;62.78;98814.17;1736498;81;21034;-68